createdAt,value
2023-04-10T00:03:18.057Z,21.05
2023-04-10T00:07:00.232Z,25.50
2023-04-10T00:10:41.945Z,22.85
2023-04-10T00:14:24.531Z,20.08
2023-04-10T00:18:06.443Z,24.75
2023-04-10T00:21:48.297Z,18.33
2023-04-10T00:25:30.362Z,20.45
2023-04-10T00:29:12.175Z,18.25
2023-04-10T00:32:53.923Z,17.52
2023-04-10T00:36:36.017Z,16.63
2023-04-10T00:40:17.790Z,16.23
2023-04-10T00:44:00.280Z,12.10
2023-04-10T00:47:42.188Z,14.75
2023-04-10T00:51:26.528Z,11.43
2023-04-10T00:55:08.959Z,11.48
2023-04-10T00:58:50.764Z,12.15
2023-04-10T01:02:32.603Z,10.85
2023-04-10T01:06:42.370Z,8.93
2023-04-10T01:10:36.683Z,7.75
2023-04-10T01:14:41.483Z,8.18
2023-04-10T01:18:26.321Z,6.30
2023-04-10T01:22:11.908Z,6.68
2023-04-10T01:26:01.327Z,4.95
2023-04-10T01:29:49.733Z,4.50
2023-04-10T01:33:38.917Z,5.28
2023-04-10T01:37:48.543Z,4.00
2023-04-10T01:41:32.927Z,3.47
2023-04-10T01:45:19.841Z,3.28
2023-04-10T01:49:03.324Z,2.38
2023-04-10T01:52:46.834Z,2.90
2023-04-10T01:56:29.073Z,1.83
2023-04-10T02:00:11.633Z,3.33
2023-04-10T02:03:53.964Z,1.80
2023-04-10T02:07:46.262Z,2.10
2023-04-10T02:11:42.704Z,1.83
2023-04-10T02:15:27.733Z,2.63
2023-04-10T02:19:11.028Z,0.93
2023-04-10T02:22:54.354Z,1.02
2023-04-10T02:26:50.941Z,0.73
2023-04-10T02:30:33.318Z,0.90
2023-04-10T02:34:15.074Z,2.38
2023-04-10T02:37:56.910Z,2.50
2023-04-10T02:41:38.630Z,1.20
2023-04-10T02:45:20.371Z,2.25
2023-04-10T02:49:02.223Z,1.92
2023-04-10T02:52:44.260Z,2.20
2023-04-10T02:56:27.141Z,2.40
2023-04-10T03:00:09.681Z,2.78
2023-04-10T03:03:51.557Z,2.00
2023-04-10T03:07:33.969Z,4.60
2023-04-10T03:11:15.693Z,2.60
2023-04-10T03:14:57.465Z,3.67
2023-04-10T03:18:39.165Z,2.70
2023-04-10T03:22:21.047Z,15.93
2023-04-10T03:26:04.662Z,3.60
2023-04-10T03:29:46.526Z,2.03
2023-04-10T03:33:28.309Z,1.80
2023-04-10T03:37:10.520Z,2.60
2023-04-10T03:40:53.837Z,1.60
2023-04-10T03:44:35.903Z,3.38
2023-04-10T03:48:18.048Z,2.08
2023-04-10T03:51:59.801Z,4.63
2023-04-10T03:55:41.517Z,2.30
2023-04-10T03:59:31.006Z,3.00
2023-04-10T04:03:19.501Z,3.78
2023-04-10T04:07:01.484Z,4.60
2023-04-10T04:10:43.241Z,3.40
2023-04-10T04:14:25.027Z,2.53
2023-04-10T04:18:06.767Z,3.13
2023-04-10T04:21:48.574Z,4.03
2023-04-10T04:25:30.367Z,3.63
2023-04-10T04:29:12.139Z,5.05
2023-04-10T04:32:53.968Z,4.13
2023-04-10T04:36:35.865Z,3.33
2023-04-10T04:40:17.585Z,4.03
2023-04-10T04:44:01.930Z,3.17
2023-04-10T04:47:43.769Z,3.60
2023-04-10T04:51:25.790Z,3.78
2023-04-10T04:55:08.678Z,2.60
2023-04-10T04:58:50.430Z,2.15
2023-04-10T05:02:32.274Z,1.88
2023-04-10T05:06:14.522Z,1.58
2023-04-10T05:09:56.749Z,2.63
2023-04-10T05:13:38.568Z,2.45
2023-04-10T05:17:20.426Z,1.13
2023-04-10T05:21:02.326Z,1.33
2023-04-10T05:24:44.104Z,2.45
2023-04-10T05:28:25.942Z,1.50
2023-04-10T05:32:07.797Z,1.30
2023-04-10T05:35:49.604Z,1.70
2023-04-10T05:39:31.888Z,2.28
2023-04-10T05:43:13.796Z,2.47
2023-04-10T05:46:55.514Z,2.60
2023-04-10T05:50:37.276Z,2.85
2023-04-10T05:54:19.294Z,2.17
2023-04-10T05:58:01.126Z,2.95
2023-04-10T06:01:44.325Z,4.63
2023-04-10T06:05:26.251Z,2.65
2023-04-10T06:09:08.132Z,2.58
2023-04-10T06:12:49.842Z,1.55
2023-04-10T06:16:32.025Z,2.33
2023-04-10T06:20:13.935Z,1.35
2023-04-10T06:23:55.845Z,1.88
2023-04-10T06:27:37.651Z,1.33
2023-04-10T06:31:23.007Z,1.08
2023-04-10T06:35:05.316Z,1.23
2023-04-10T06:38:47.168Z,0.85
2023-04-10T06:42:28.944Z,1.88
2023-04-10T06:46:10.751Z,1.10
2023-04-10T06:49:52.534Z,1.25
2023-04-10T06:53:34.311Z,0.75
2023-04-10T06:57:16.133Z,0.45
2023-04-10T07:00:58.884Z,0.63
2023-04-10T07:04:40.800Z,0.38
2023-04-10T07:08:22.600Z,0.10
2023-04-10T07:12:04.500Z,0.57
2023-04-10T07:15:46.617Z,0.20
2023-04-10T07:19:28.362Z,0.25
2023-04-10T07:23:10.629Z,1.40
2023-04-10T07:26:52.549Z,0.20
2023-04-10T07:30:34.463Z,0.10
2023-04-10T07:34:16.232Z,1.38
2023-04-10T07:37:58.032Z,0.32
2023-04-10T07:41:40.366Z,0.73
2023-04-10T07:45:22.322Z,1.23
2023-04-10T07:49:04.869Z,1.20
2023-04-10T07:52:48.508Z,0.20
2023-04-10T07:56:33.376Z,1.15
2023-04-10T08:00:16.496Z,0.65
2023-04-10T08:03:58.775Z,1.75
2023-04-10T08:07:41.146Z,1.40
2023-04-10T08:11:26.183Z,1.00
2023-04-10T08:15:08.321Z,2.25
2023-04-10T08:18:50.356Z,1.63
2023-04-10T08:22:32.166Z,2.08
2023-04-10T08:26:14.103Z,5.43
2023-04-10T08:29:56.108Z,3.67
2023-04-10T08:33:37.838Z,2.28
2023-04-10T08:37:21.376Z,1.63
2023-04-10T08:41:03.308Z,3.08
2023-04-10T08:44:45.959Z,2.35
2023-04-10T08:48:35.551Z,2.03
2023-04-10T08:52:22.618Z,1.77
2023-04-10T08:56:05.452Z,4.78
2023-04-10T08:59:48.601Z,3.85
2023-04-10T09:03:31.069Z,3.55
2023-04-10T09:07:12.957Z,3.47
2023-04-10T09:10:56.333Z,2.85
2023-04-10T09:14:41.216Z,4.82
2023-04-10T09:18:22.974Z,3.60
2023-04-10T09:22:04.810Z,3.42
2023-04-10T09:25:48.323Z,3.88
2023-04-10T09:29:45.890Z,2.08
2023-04-10T09:33:29.979Z,1.42
2023-04-10T09:37:12.773Z,4.88
2023-04-10T09:41:09.478Z,6.10
2023-04-10T09:44:55.595Z,4.47
2023-04-10T09:48:37.643Z,3.70
2023-04-10T09:52:21.881Z,5.15
2023-04-10T09:56:05.286Z,3.50
2023-04-10T09:59:52.557Z,3.58
2023-04-10T10:03:34.404Z,6.38
2023-04-10T10:07:17.737Z,5.72
2023-04-10T10:11:03.571Z,9.13
2023-04-10T10:14:56.052Z,6.13
2023-04-10T10:19:10.985Z,7.57
2023-04-10T10:22:53.501Z,4.97
2023-04-10T10:26:38.704Z,6.10
2023-04-10T10:34:09.259Z,8.60
2023-04-10T10:37:51.683Z,10.45
2023-04-10T10:41:41.312Z,5.97
2023-04-10T10:45:57.329Z,7.40
2023-04-10T10:49:56.973Z,7.57
2023-04-10T10:53:40.371Z,6.80
2023-04-10T10:57:47.835Z,7.30
2023-04-10T11:01:31.164Z,4.60
2023-04-10T11:05:52.359Z,8.80
2023-04-10T11:09:54.492Z,7.57
2023-04-10T11:13:56.691Z,5.85
2023-04-10T11:17:49.707Z,5.50
2023-04-10T11:21:32.100Z,6.40
2023-04-10T11:25:13.897Z,5.78
2023-04-10T11:28:56.030Z,6.05
2023-04-10T11:32:45.232Z,3.92
2023-04-10T11:36:27.355Z,4.68
2023-04-10T11:40:09.575Z,5.28
2023-04-10T11:43:54.164Z,5.68
2023-04-10T11:47:36.017Z,4.32
2023-04-10T11:51:17.845Z,7.70
2023-04-10T11:54:59.577Z,6.50
2023-04-10T11:58:41.302Z,5.47
2023-04-10T12:02:23.122Z,7.68
2023-04-10T12:06:08.141Z,5.47
2023-04-10T12:09:57.609Z,6.55
2023-04-10T12:13:39.553Z,5.65
2023-04-10T12:17:21.420Z,6.28
2023-04-10T12:21:05.530Z,6.53
2023-04-10T12:24:53.565Z,4.53
2023-04-10T12:28:37.796Z,6.10
2023-04-10T12:32:20.170Z,7.70
2023-04-10T12:36:02.513Z,5.47
2023-04-10T12:39:44.264Z,4.57
2023-04-10T12:43:38.346Z,6.57
2023-04-10T12:47:20.392Z,5.13
2023-04-10T12:51:02.708Z,4.65
2023-04-10T12:54:44.447Z,6.30
2023-04-10T12:58:31.041Z,6.38
2023-04-10T13:02:12.903Z,4.57
2023-04-10T13:05:54.848Z,7.60
2023-04-10T13:09:37.282Z,8.70
2023-04-10T13:13:19.021Z,8.68
2023-04-10T13:17:00.829Z,5.03
2023-04-10T13:20:42.615Z,5.45
2023-04-10T13:24:24.368Z,5.18
2023-04-10T13:28:11.082Z,6.03
2023-04-10T13:31:52.905Z,4.53
2023-04-10T13:35:34.851Z,5.55
2023-04-10T13:39:18.513Z,4.50
2023-04-10T13:43:00.334Z,4.63
2023-04-10T13:46:42.145Z,7.00
2023-04-10T13:50:23.981Z,6.18
2023-04-10T13:54:06.537Z,5.57
2023-04-10T13:57:48.276Z,6.20
2023-04-10T14:01:30.273Z,3.50
2023-04-10T14:05:12.075Z,7.88
2023-04-10T14:08:54.068Z,6.03
2023-04-10T14:12:37.570Z,7.65
2023-04-10T14:16:19.955Z,8.30
2023-04-10T14:20:02.152Z,5.32
2023-04-10T14:23:43.906Z,8.65
2023-04-10T14:27:25.732Z,7.70
2023-04-10T14:31:08.038Z,3.53
2023-04-10T14:34:49.886Z,5.93
2023-04-10T14:38:31.721Z,8.07
2023-04-10T14:42:13.509Z,5.55
2023-04-10T14:45:55.333Z,5.78
2023-04-10T14:49:37.113Z,5.55
2023-04-10T14:53:18.910Z,5.90
2023-04-10T14:57:01.978Z,6.35
2023-04-10T15:00:44.372Z,4.70
2023-04-10T15:04:26.243Z,8.27
2023-04-10T15:08:08.009Z,5.50
2023-04-10T15:11:49.726Z,11.98
2023-04-10T15:15:31.454Z,6.97
2023-04-10T15:19:13.286Z,12.63
2023-04-10T15:22:55.005Z,8.20
2023-04-10T15:26:36.760Z,6.97
2023-04-10T15:30:19.219Z,9.13
2023-04-10T15:34:00.972Z,6.18
2023-04-10T15:37:42.751Z,8.23
2023-04-10T15:41:24.472Z,5.68
2023-04-10T15:45:06.700Z,2.90
2023-04-10T15:48:48.440Z,8.05
2023-04-10T15:52:32.664Z,6.22
2023-04-10T15:56:16.185Z,8.35
2023-04-10T16:00:00.492Z,12.63
2023-04-10T16:03:42.543Z,9.27
2023-04-10T16:07:24.718Z,8.93
2023-04-10T16:11:06.743Z,10.02
2023-04-10T16:14:48.532Z,10.02
2023-04-10T16:18:30.463Z,10.50
2023-04-10T16:22:12.210Z,9.88
2023-04-10T16:25:53.932Z,6.85
2023-04-10T16:29:36.130Z,7.53
2023-04-10T16:33:17.939Z,6.47
2023-04-10T16:36:59.666Z,8.15
2023-04-10T16:40:41.431Z,7.90
2023-04-10T16:44:23.181Z,10.75
2023-04-10T16:48:05.022Z,8.30
2023-04-10T16:51:46.804Z,10.25
2023-04-10T16:55:28.536Z,12.82
2023-04-10T16:59:10.317Z,10.07
2023-04-10T17:02:52.223Z,8.73
2023-04-10T17:06:33.976Z,10.40
2023-04-10T17:10:15.920Z,4.90
2023-04-10T17:13:57.649Z,4.75
2023-04-10T17:17:39.428Z,9.38
2023-04-10T17:21:21.248Z,9.02
2023-04-10T17:25:03.034Z,11.65
2023-04-10T17:28:46.252Z,10.07
2023-04-10T17:32:28.102Z,7.60
2023-04-10T17:36:12.266Z,7.68
2023-04-10T17:39:54.581Z,7.88
2023-04-10T17:43:36.319Z,5.40
2023-04-10T17:47:18.136Z,5.00
2023-04-10T17:51:05.029Z,11.18
2023-04-10T17:54:46.748Z,11.25
2023-04-10T17:58:28.487Z,10.15
2023-04-10T18:02:10.286Z,6.05
2023-04-10T18:05:52.103Z,7.60
2023-04-10T18:09:33.900Z,7.60
2023-04-10T18:13:15.814Z,7.40
2023-04-10T18:16:57.597Z,5.80
2023-04-10T18:20:39.378Z,10.60
2023-04-10T18:24:21.201Z,7.53
2023-04-10T18:31:47.597Z,8.43
2023-04-10T18:35:31.292Z,7.15
2023-04-10T18:39:13.247Z,8.80
2023-04-10T18:42:55.030Z,8.13
2023-04-10T18:46:37.054Z,12.88
2023-04-10T18:50:18.969Z,10.60
2023-04-10T18:54:00.749Z,12.40
2023-04-10T18:57:42.540Z,11.43
2023-04-10T19:01:24.452Z,9.35
2023-04-10T19:05:07.059Z,6.20
2023-04-10T19:08:48.942Z,5.32
2023-04-10T19:12:30.801Z,7.80
2023-04-10T19:16:14.718Z,10.65
2023-04-10T19:19:57.987Z,7.85
2023-04-10T19:23:40.281Z,10.40
2023-04-10T19:27:22.245Z,12.13
2023-04-10T19:31:04.181Z,16.63
2023-04-10T19:34:51.174Z,6.85
2023-04-10T19:38:33.024Z,11.27
2023-04-10T19:42:15.020Z,13.93
2023-04-10T19:45:59.880Z,10.60
2023-04-10T19:49:41.805Z,6.50
2023-04-10T19:53:23.627Z,13.35
2023-04-10T19:57:05.700Z,8.65
2023-04-10T20:00:47.578Z,8.80
2023-04-10T20:04:29.653Z,11.05
2023-04-10T20:08:11.642Z,11.90
2023-04-10T20:11:53.439Z,11.48
2023-04-10T20:15:35.633Z,4.85
2023-04-10T20:19:18.001Z,16.92
2023-04-10T20:22:59.813Z,6.28
2023-04-10T20:26:41.898Z,8.57
2023-04-10T20:30:23.738Z,14.05
2023-04-10T20:34:05.758Z,9.18
2023-04-10T20:37:48.290Z,9.52
2023-04-10T20:41:30.158Z,9.45
2023-04-10T20:45:12.290Z,6.55
2023-04-10T20:48:55.702Z,11.40
2023-04-10T20:52:37.660Z,10.05
2023-04-10T20:56:21.140Z,11.02
2023-04-10T21:00:04.943Z,13.85
2023-04-10T21:03:46.843Z,10.77
2023-04-10T21:07:28.796Z,11.07
2023-04-10T21:11:10.735Z,11.05
2023-04-10T21:14:52.500Z,8.52
2023-04-10T21:18:34.234Z,10.15
2023-04-10T21:22:16.044Z,13.30
2023-04-10T21:25:57.818Z,13.93
2023-04-10T21:29:39.604Z,11.45
2023-04-10T21:33:21.328Z,10.07
2023-04-10T21:37:03.033Z,16.77
2023-04-10T21:40:54.782Z,7.95
2023-04-10T21:44:36.518Z,8.88
2023-04-10T21:48:20.500Z,12.88
2023-04-10T21:52:02.265Z,10.43
2023-04-10T21:55:44.037Z,6.30
2023-04-10T21:59:25.960Z,8.15
2023-04-10T22:03:09.360Z,7.13
2023-04-10T22:06:51.247Z,11.23
2023-04-10T22:10:32.987Z,13.90
2023-04-10T22:14:18.077Z,7.70
2023-04-10T22:18:01.199Z,7.85
2023-04-10T22:21:43.140Z,11.10
2023-04-10T22:25:25.366Z,14.65
2023-04-10T22:29:07.092Z,11.45
2023-04-10T22:32:48.893Z,7.65
2023-04-10T22:36:34.078Z,5.82
2023-04-10T22:40:15.841Z,9.60
2023-04-10T22:43:57.773Z,7.30
2023-04-10T22:47:39.522Z,11.10
2023-04-10T22:51:21.316Z,10.70
2023-04-10T22:55:04.800Z,10.98
2023-04-10T22:58:46.509Z,9.60
2023-04-10T23:02:28.390Z,7.93
2023-04-10T23:06:10.223Z,6.22
2023-04-10T23:09:51.950Z,14.52
2023-04-10T23:13:33.709Z,8.65
2023-04-10T23:17:15.449Z,11.93
2023-04-10T23:20:57.167Z,10.25
2023-04-10T23:24:38.963Z,12.55
2023-04-10T23:28:22.462Z,8.10
2023-04-10T23:32:04.331Z,14.05
2023-04-10T23:35:46.167Z,14.02
2023-04-10T23:39:27.916Z,8.77
2023-04-10T23:43:09.641Z,10.15
2023-04-10T23:46:51.495Z,9.57
2023-04-10T23:50:33.269Z,12.45
2023-04-10T23:54:15.378Z,7.13
2023-04-10T23:57:57.096Z,9.18
